sensor_id;sensor_type;location;lat;lon;timestamp;P1;durP1;ratioP1;P2;durP2;ratioP2
70675;SDS011;59069;52.242;20.900;2023-09-19T00:01:22;15.53;;;9.73;;
70675;SDS011;59069;52.242;20.900;2023-09-19T00:03:47;15.03;;;9.13;;
70675;SDS011;59069;52.242;20.900;2023-09-19T00:06:13;16.80;;;9.20;;
70675;SDS011;59069;52.242;20.900;2023-09-19T00:08:40;14.52;;;8.35;;
70675;SDS011;59069;52.242;20.900;2023-09-19T00:11:09;15.43;;;9.32;;
70675;SDS011;59069;52.242;20.900;2023-09-19T00:13:36;15.02;;;9.27;;
70675;SDS011;59069;52.242;20.900;2023-09-19T00:16:08;15.97;;;9.53;;
70675;SDS011;59069;52.242;20.900;2023-09-19T00:18:37;17.98;;;10.02;;
70675;SDS011;59069;52.242;20.900;2023-09-19T00:21:03;15.15;;;9.50;;
70675;SDS011;59069;52.242;20.900;2023-09-19T00:23:32;15.70;;;9.63;;
70675;SDS011;59069;52.242;20.900;2023-09-19T00:25:58;18.03;;;9.50;;
70675;SDS011;59069;52.242;20.900;2023-09-19T00:28:24;19.13;;;9.57;;
70675;SDS011;59069;52.242;20.900;2023-09-19T00:30:50;18.63;;;10.10;;
70675;SDS011;59069;52.242;20.900;2023-09-19T00:33:15;16.05;;;9.10;;
70675;SDS011;59069;52.242;20.900;2023-09-19T00:35:53;16.50;;;9.40;;
70675;SDS011;59069;52.242;20.900;2023-09-19T00:38:20;18.13;;;9.30;;
70675;SDS011;59069;52.242;20.900;2023-09-19T00:40:48;16.75;;;9.05;;
70675;SDS011;59069;52.242;20.900;2023-09-19T00:43:16;16.38;;;9.77;;
70675;SDS011;59069;52.242;20.900;2023-09-19T00:45:42;15.50;;;9.30;;
70675;SDS011;59069;52.242;20.900;2023-09-19T00:48:10;15.98;;;9.43;;
70675;SDS011;59069;52.242;20.900;2023-09-19T00:50:36;18.50;;;9.30;;
70675;SDS011;59069;52.242;20.900;2023-09-19T00:53:07;15.30;;;9.68;;
70675;SDS011;59069;52.242;20.900;2023-09-19T00:55:33;14.73;;;8.83;;
70675;SDS011;59069;52.242;20.900;2023-09-19T00:57:59;16.50;;;9.85;;
70675;SDS011;59069;52.242;20.900;2023-09-19T01:00:25;16.13;;;9.68;;
70675;SDS011;59069;52.242;20.900;2023-09-19T01:02:51;16.52;;;9.88;;
70675;SDS011;59069;52.242;20.900;2023-09-19T01:05:17;17.67;;;9.60;;
70675;SDS011;59069;52.242;20.900;2023-09-19T01:07:44;16.45;;;9.68;;
70675;SDS011;59069;52.242;20.900;2023-09-19T01:10:14;16.90;;;9.65;;
70675;SDS011;59069;52.242;20.900;2023-09-19T01:31:22;16.73;;;9.83;;
70675;SDS011;59069;52.242;20.900;2023-09-19T01:36:30;16.38;;;9.75;;
70675;SDS011;59069;52.242;20.900;2023-09-19T01:39:02;16.98;;;9.82;;
70675;SDS011;59069;52.242;20.900;2023-09-19T01:44:40;18.17;;;9.77;;
70675;SDS011;59069;52.242;20.900;2023-09-19T01:47:19;16.88;;;9.90;;
70675;SDS011;59069;52.242;20.900;2023-09-19T01:52:36;16.88;;;10.38;;
70675;SDS011;59069;52.242;20.900;2023-09-19T01:55:09;18.52;;;10.32;;
70675;SDS011;59069;52.242;20.900;2023-09-19T01:57:38;16.43;;;9.70;;
70675;SDS011;59069;52.242;20.900;2023-09-19T02:00:09;16.50;;;10.27;;
70675;SDS011;59069;52.242;20.900;2023-09-19T02:02:39;16.58;;;10.45;;
70675;SDS011;59069;52.242;20.900;2023-09-19T02:05:09;17.02;;;10.73;;
70675;SDS011;59069;52.242;20.900;2023-09-19T02:07:35;19.48;;;10.52;;
70675;SDS011;59069;52.242;20.900;2023-09-19T02:10:03;16.73;;;10.07;;
70675;SDS011;59069;52.242;20.900;2023-09-19T02:12:32;18.92;;;10.25;;
70675;SDS011;59069;52.242;20.900;2023-09-19T02:14:58;17.45;;;10.07;;
70675;SDS011;59069;52.242;20.900;2023-09-19T02:17:24;16.73;;;9.90;;
70675;SDS011;59069;52.242;20.900;2023-09-19T02:19:54;16.90;;;9.55;;
70675;SDS011;59069;52.242;20.900;2023-09-19T02:22:20;17.90;;;9.73;;
70675;SDS011;59069;52.242;20.900;2023-09-19T02:24:45;16.88;;;10.18;;
70675;SDS011;59069;52.242;20.900;2023-09-19T02:27:13;17.85;;;10.68;;
70675;SDS011;59069;52.242;20.900;2023-09-19T02:29:40;16.33;;;9.90;;
70675;SDS011;59069;52.242;20.900;2023-09-19T02:32:06;20.17;;;10.10;;
70675;SDS011;59069;52.242;20.900;2023-09-19T02:34:32;16.10;;;9.25;;
70675;SDS011;59069;52.242;20.900;2023-09-19T02:36:57;18.50;;;9.67;;
70675;SDS011;59069;52.242;20.900;2023-09-19T02:39:23;16.63;;;10.07;;
70675;SDS011;59069;52.242;20.900;2023-09-19T02:41:48;19.45;;;9.82;;
70675;SDS011;59069;52.242;20.900;2023-09-19T02:44:14;16.80;;;10.17;;
70675;SDS011;59069;52.242;20.900;2023-09-19T02:46:39;17.47;;;9.80;;
70675;SDS011;59069;52.242;20.900;2023-09-19T02:49:05;16.47;;;10.10;;
70675;SDS011;59069;52.242;20.900;2023-09-19T02:51:31;15.27;;;10.10;;
70675;SDS011;59069;52.242;20.900;2023-09-19T02:53:57;16.30;;;10.23;;
70675;SDS011;59069;52.242;20.900;2023-09-19T02:56:24;20.15;;;10.45;;
70675;SDS011;59069;52.242;20.900;2023-09-19T02:58:50;14.77;;;9.40;;
70675;SDS011;59069;52.242;20.900;2023-09-19T03:01:16;16.83;;;9.63;;
70675;SDS011;59069;52.242;20.900;2023-09-19T03:03:43;17.40;;;10.30;;
70675;SDS011;59069;52.242;20.900;2023-09-19T03:06:10;17.25;;;10.20;;
70675;SDS011;59069;52.242;20.900;2023-09-19T03:08:37;18.13;;;10.95;;
70675;SDS011;59069;52.242;20.900;2023-09-19T03:11:04;17.83;;;10.23;;
70675;SDS011;59069;52.242;20.900;2023-09-19T03:13:35;16.13;;;10.30;;
70675;SDS011;59069;52.242;20.900;2023-09-19T03:16:03;17.90;;;10.43;;
70675;SDS011;59069;52.242;20.900;2023-09-19T03:18:31;19.70;;;10.40;;
70675;SDS011;59069;52.242;20.900;2023-09-19T03:20:59;17.20;;;10.05;;
70675;SDS011;59069;52.242;20.900;2023-09-19T03:23:28;19.15;;;10.52;;
70675;SDS011;59069;52.242;20.900;2023-09-19T03:25:54;18.03;;;10.27;;
70675;SDS011;59069;52.242;20.900;2023-09-19T03:28:21;18.00;;;10.10;;
70675;SDS011;59069;52.242;20.900;2023-09-19T03:31:08;20.30;;;10.60;;
70675;SDS011;59069;52.242;20.900;2023-09-19T03:33:32;16.58;;;10.75;;
70675;SDS011;59069;52.242;20.900;2023-09-19T03:35:59;17.73;;;10.60;;
70675;SDS011;59069;52.242;20.900;2023-09-19T03:38:25;18.03;;;10.50;;
70675;SDS011;59069;52.242;20.900;2023-09-19T03:40:52;17.95;;;10.98;;
70675;SDS011;59069;52.242;20.900;2023-09-19T03:43:18;19.60;;;10.50;;
70675;SDS011;59069;52.242;20.900;2023-09-19T03:45:44;17.58;;;10.15;;
70675;SDS011;59069;52.242;20.900;2023-09-19T03:48:09;16.67;;;9.87;;
70675;SDS011;59069;52.242;20.900;2023-09-19T03:50:35;18.92;;;9.93;;
70675;SDS011;59069;52.242;20.900;2023-09-19T03:53:01;16.33;;;10.33;;
70675;SDS011;59069;52.242;20.900;2023-09-19T03:55:27;17.38;;;10.40;;
70675;SDS011;59069;52.242;20.900;2023-09-19T03:57:52;18.17;;;10.70;;
70675;SDS011;59069;52.242;20.900;2023-09-19T04:00:18;18.23;;;11.23;;
70675;SDS011;59069;52.242;20.900;2023-09-19T04:02:47;21.00;;;10.68;;
70675;SDS011;59069;52.242;20.900;2023-09-19T04:05:13;18.70;;;10.47;;
70675;SDS011;59069;52.242;20.900;2023-09-19T04:07:38;17.48;;;10.10;;
70675;SDS011;59069;52.242;20.900;2023-09-19T04:10:04;18.40;;;10.17;;
70675;SDS011;59069;52.242;20.900;2023-09-19T04:12:30;20.13;;;10.63;;
70675;SDS011;59069;52.242;20.900;2023-09-19T04:14:55;17.53;;;10.20;;
70675;SDS011;59069;52.242;20.900;2023-09-19T04:17:21;17.37;;;11.00;;
70675;SDS011;59069;52.242;20.900;2023-09-19T04:19:46;18.93;;;9.77;;
70675;SDS011;59069;52.242;20.900;2023-09-19T04:22:11;16.80;;;10.05;;
70675;SDS011;59069;52.242;20.900;2023-09-19T04:24:38;17.13;;;9.30;;
70675;SDS011;59069;52.242;20.900;2023-09-19T04:27:03;19.08;;;10.50;;
70675;SDS011;59069;52.242;20.900;2023-09-19T04:29:29;18.63;;;10.40;;
70675;SDS011;59069;52.242;20.900;2023-09-19T04:31:55;18.67;;;10.05;;
70675;SDS011;59069;52.242;20.900;2023-09-19T04:34:22;16.93;;;10.33;;
70675;SDS011;59069;52.242;20.900;2023-09-19T04:36:49;21.38;;;9.88;;
70675;SDS011;59069;52.242;20.900;2023-09-19T04:39:14;18.35;;;9.73;;
70675;SDS011;59069;52.242;20.900;2023-09-19T04:41:41;18.63;;;10.27;;
70675;SDS011;59069;52.242;20.900;2023-09-19T04:44:07;17.25;;;9.75;;
70675;SDS011;59069;52.242;20.900;2023-09-19T04:46:33;17.37;;;10.70;;
70675;SDS011;59069;52.242;20.900;2023-09-19T04:48:59;20.25;;;11.23;;
70675;SDS011;59069;52.242;20.900;2023-09-19T04:51:24;28.63;;;12.83;;
70675;SDS011;59069;52.242;20.900;2023-09-19T04:53:51;22.80;;;11.82;;
70675;SDS011;59069;52.242;20.900;2023-09-19T04:56:17;19.47;;;10.40;;
70675;SDS011;59069;52.242;20.900;2023-09-19T04:58:42;19.50;;;10.00;;
70675;SDS011;59069;52.242;20.900;2023-09-19T05:01:08;17.80;;;9.87;;
70675;SDS011;59069;52.242;20.900;2023-09-19T05:03:36;17.70;;;10.00;;
70675;SDS011;59069;52.242;20.900;2023-09-19T05:06:02;17.73;;;10.50;;
70675;SDS011;59069;52.242;20.900;2023-09-19T05:08:29;18.88;;;9.90;;
70675;SDS011;59069;52.242;20.900;2023-09-19T05:10:54;17.80;;;10.07;;
70675;SDS011;59069;52.242;20.900;2023-09-19T05:13:21;18.55;;;10.68;;
70675;SDS011;59069;52.242;20.900;2023-09-19T05:15:48;17.55;;;10.02;;
70675;SDS011;59069;52.242;20.900;2023-09-19T05:18:15;16.63;;;10.27;;
70675;SDS011;59069;52.242;20.900;2023-09-19T05:20:40;19.93;;;9.67;;
70675;SDS011;59069;52.242;20.900;2023-09-19T05:23:06;18.00;;;10.83;;
70675;SDS011;59069;52.242;20.900;2023-09-19T05:25:37;17.55;;;10.23;;
70675;SDS011;59069;52.242;20.900;2023-09-19T05:28:05;18.70;;;10.52;;
70675;SDS011;59069;52.242;20.900;2023-09-19T05:30:32;18.05;;;10.00;;
70675;SDS011;59069;52.242;20.900;2023-09-19T05:32:57;16.83;;;10.73;;
70675;SDS011;59069;52.242;20.900;2023-09-19T05:35:23;16.27;;;9.98;;
70675;SDS011;59069;52.242;20.900;2023-09-19T05:37:50;17.10;;;9.50;;
70675;SDS011;59069;52.242;20.900;2023-09-19T05:40:19;17.67;;;9.73;;
70675;SDS011;59069;52.242;20.900;2023-09-19T05:42:45;18.40;;;10.27;;
70675;SDS011;59069;52.242;20.900;2023-09-19T05:45:11;19.40;;;9.25;;
70675;SDS011;59069;52.242;20.900;2023-09-19T05:47:37;19.67;;;10.07;;
70675;SDS011;59069;52.242;20.900;2023-09-19T05:50:05;16.30;;;9.37;;
70675;SDS011;59069;52.242;20.900;2023-09-19T05:52:32;14.68;;;9.23;;
70675;SDS011;59069;52.242;20.900;2023-09-19T05:54:58;18.10;;;9.47;;
70675;SDS011;59069;52.242;20.900;2023-09-19T05:57:23;15.20;;;9.77;;
70675;SDS011;59069;52.242;20.900;2023-09-19T05:59:49;13.40;;;8.23;;
70675;SDS011;59069;52.242;20.900;2023-09-19T06:02:15;18.90;;;10.00;;
70675;SDS011;59069;52.242;20.900;2023-09-19T06:04:41;18.07;;;9.23;;
70675;SDS011;59069;52.242;20.900;2023-09-19T06:07:06;18.08;;;9.35;;
70675;SDS011;59069;52.242;20.900;2023-09-19T06:09:32;18.80;;;10.03;;
70675;SDS011;59069;52.242;20.900;2023-09-19T06:11:57;17.87;;;10.17;;
70675;SDS011;59069;52.242;20.900;2023-09-19T06:14:25;18.95;;;10.00;;
70675;SDS011;59069;52.242;20.900;2023-09-19T06:16:50;17.97;;;10.07;;
70675;SDS011;59069;52.242;20.900;2023-09-19T06:19:19;18.73;;;10.00;;
70675;SDS011;59069;52.242;20.900;2023-09-19T06:21:47;18.23;;;8.98;;
70675;SDS011;59069;52.242;20.900;2023-09-19T06:24:13;21.50;;;9.18;;
70675;SDS011;59069;52.242;20.900;2023-09-19T06:26:39;18.47;;;11.57;;
70675;SDS011;59069;52.242;20.900;2023-09-19T06:29:05;20.02;;;10.73;;
70675;SDS011;59069;52.242;20.900;2023-09-19T06:31:32;21.27;;;10.57;;
70675;SDS011;59069;52.242;20.900;2023-09-19T06:33:58;18.95;;;10.82;;
70675;SDS011;59069;52.242;20.900;2023-09-19T06:36:23;18.43;;;9.57;;
70675;SDS011;59069;52.242;20.900;2023-09-19T06:38:49;16.38;;;9.80;;
70675;SDS011;59069;52.242;20.900;2023-09-19T06:41:16;19.90;;;10.43;;
70675;SDS011;59069;52.242;20.900;2023-09-19T06:43:42;22.20;;;10.63;;
70675;SDS011;59069;52.242;20.900;2023-09-19T06:46:08;23.58;;;10.52;;
70675;SDS011;59069;52.242;20.900;2023-09-19T06:48:34;16.17;;;8.93;;
70675;SDS011;59069;52.242;20.900;2023-09-19T06:51:00;18.07;;;9.37;;
70675;SDS011;59069;52.242;20.900;2023-09-19T06:53:33;18.08;;;9.55;;
70675;SDS011;59069;52.242;20.900;2023-09-19T06:56:00;17.50;;;9.30;;
70675;SDS011;59069;52.242;20.900;2023-09-19T06:58:26;19.50;;;9.27;;
70675;SDS011;59069;52.242;20.900;2023-09-19T07:00:52;22.05;;;9.57;;
70675;SDS011;59069;52.242;20.900;2023-09-19T07:03:17;18.43;;;9.60;;
70675;SDS011;59069;52.242;20.900;2023-09-19T07:05:46;15.45;;;9.15;;
70675;SDS011;59069;52.242;20.900;2023-09-19T07:08:13;15.65;;;9.20;;
70675;SDS011;59069;52.242;20.900;2023-09-19T07:10:39;19.20;;;9.70;;
70675;SDS011;59069;52.242;20.900;2023-09-19T07:13:14;17.73;;;9.80;;
70675;SDS011;59069;52.242;20.900;2023-09-19T07:15:42;18.65;;;10.23;;
70675;SDS011;59069;52.242;20.900;2023-09-19T07:18:12;17.40;;;9.80;;
70675;SDS011;59069;52.242;20.900;2023-09-19T07:20:43;18.50;;;10.47;;
70675;SDS011;59069;52.242;20.900;2023-09-19T07:23:18;17.00;;;10.25;;
70675;SDS011;59069;52.242;20.900;2023-09-19T07:25:45;17.38;;;10.27;;
70675;SDS011;59069;52.242;20.900;2023-09-19T07:28:11;19.40;;;10.93;;
70675;SDS011;59069;52.242;20.900;2023-09-19T07:30:37;20.45;;;11.13;;
70675;SDS011;59069;52.242;20.900;2023-09-19T07:33:02;17.37;;;11.13;;
70675;SDS011;59069;52.242;20.900;2023-09-19T07:35:30;17.92;;;10.77;;
70675;SDS011;59069;52.242;20.900;2023-09-19T07:37:56;20.35;;;10.93;;
70675;SDS011;59069;52.242;20.900;2023-09-19T07:40:21;19.57;;;11.60;;
70675;SDS011;59069;52.242;20.900;2023-09-19T07:42:49;18.63;;;11.35;;
70675;SDS011;59069;52.242;20.900;2023-09-19T07:45:15;19.20;;;11.87;;
70675;SDS011;59069;52.242;20.900;2023-09-19T07:47:45;21.33;;;12.13;;
70675;SDS011;59069;52.242;20.900;2023-09-19T07:50:20;20.35;;;11.63;;
70675;SDS011;59069;52.242;20.900;2023-09-19T07:52:46;17.08;;;11.90;;
70675;SDS011;59069;52.242;20.900;2023-09-19T07:55:12;19.13;;;12.15;;
70675;SDS011;59069;52.242;20.900;2023-09-19T07:57:42;18.27;;;11.60;;
70675;SDS011;59069;52.242;20.900;2023-09-19T08:00:09;18.58;;;11.93;;
70675;SDS011;59069;52.242;20.900;2023-09-19T08:02:38;19.70;;;12.80;;
70675;SDS011;59069;52.242;20.900;2023-09-19T08:05:10;18.77;;;11.18;;
70675;SDS011;59069;52.242;20.900;2023-09-19T08:07:40;21.77;;;12.13;;
70675;SDS011;59069;52.242;20.900;2023-09-19T08:10:10;19.97;;;11.47;;
70675;SDS011;59069;52.242;20.900;2023-09-19T08:12:40;17.27;;;10.68;;
70675;SDS011;59069;52.242;20.900;2023-09-19T08:15:18;17.85;;;11.80;;
70675;SDS011;59069;52.242;20.900;2023-09-19T08:17:45;18.90;;;11.23;;
70675;SDS011;59069;52.242;20.900;2023-09-19T08:20:11;17.50;;;10.65;;
70675;SDS011;59069;52.242;20.900;2023-09-19T08:22:47;15.57;;;10.00;;
70675;SDS011;59069;52.242;20.900;2023-09-19T08:25:22;14.95;;;9.70;;
70675;SDS011;59069;52.242;20.900;2023-09-19T08:27:48;16.77;;;10.25;;
70675;SDS011;59069;52.242;20.900;2023-09-19T08:30:18;16.77;;;9.80;;
70675;SDS011;59069;52.242;20.900;2023-09-19T08:32:48;16.58;;;9.82;;
70675;SDS011;59069;52.242;20.900;2023-09-19T08:35:14;14.57;;;9.80;;
70675;SDS011;59069;52.242;20.900;2023-09-19T08:37:40;16.13;;;9.38;;
70675;SDS011;59069;52.242;20.900;2023-09-19T08:40:05;14.73;;;9.87;;
70675;SDS011;59069;52.242;20.900;2023-09-19T08:42:46;18.15;;;9.57;;
70675;SDS011;59069;52.242;20.900;2023-09-19T08:45:22;19.10;;;10.77;;
70675;SDS011;59069;52.242;20.900;2023-09-19T08:50:31;17.85;;;9.55;;
70675;SDS011;59069;52.242;20.900;2023-09-19T08:53:01;18.88;;;9.18;;
70675;SDS011;59069;52.242;20.900;2023-09-19T08:55:36;15.02;;;9.18;;
70675;SDS011;59069;52.242;20.900;2023-09-19T08:58:05;15.50;;;10.20;;
70675;SDS011;59069;52.242;20.900;2023-09-19T09:00:33;16.27;;;10.90;;
70675;SDS011;59069;52.242;20.900;2023-09-19T09:03:00;15.43;;;10.00;;
70675;SDS011;59069;52.242;20.900;2023-09-19T09:05:27;17.65;;;10.50;;
70675;SDS011;59069;52.242;20.900;2023-09-19T09:07:53;16.87;;;9.93;;
70675;SDS011;59069;52.242;20.900;2023-09-19T09:10:21;16.25;;;10.18;;
70675;SDS011;59069;52.242;20.900;2023-09-19T09:12:48;16.08;;;10.70;;
70675;SDS011;59069;52.242;20.900;2023-09-19T09:15:17;19.95;;;10.18;;
70675;SDS011;59069;52.242;20.900;2023-09-19T09:17:46;16.48;;;10.07;;
70675;SDS011;59069;52.242;20.900;2023-09-19T09:20:13;15.73;;;10.00;;
70675;SDS011;59069;52.242;20.900;2023-09-19T09:22:49;19.70;;;9.80;;
70675;SDS011;59069;52.242;20.900;2023-09-19T09:25:16;17.83;;;11.13;;
70675;SDS011;59069;52.242;20.900;2023-09-19T09:27:43;21.70;;;11.45;;
70675;SDS011;59069;52.242;20.900;2023-09-19T09:30:08;25.87;;;11.60;;
70675;SDS011;59069;52.242;20.900;2023-09-19T09:32:34;23.17;;;11.57;;
70675;SDS011;59069;52.242;20.900;2023-09-19T09:35:02;17.80;;;9.63;;
70675;SDS011;59069;52.242;20.900;2023-09-19T09:37:34;16.50;;;10.13;;
70675;SDS011;59069;52.242;20.900;2023-09-19T09:40:03;17.55;;;10.55;;
70675;SDS011;59069;52.242;20.900;2023-09-19T09:42:41;19.83;;;10.55;;
70675;SDS011;59069;52.242;20.900;2023-09-19T09:45:27;20.37;;;10.97;;
70675;SDS011;59069;52.242;20.900;2023-09-19T09:47:58;17.90;;;11.05;;
70675;SDS011;59069;52.242;20.900;2023-09-19T09:50:31;18.40;;;10.70;;
70675;SDS011;59069;52.242;20.900;2023-09-19T09:53:03;18.53;;;10.90;;
70675;SDS011;59069;52.242;20.900;2023-09-19T09:58:37;18.67;;;9.63;;
70675;SDS011;59069;52.242;20.900;2023-09-19T10:01:14;15.98;;;9.50;;
70675;SDS011;59069;52.242;20.900;2023-09-19T10:03:43;17.38;;;8.80;;
70675;SDS011;59069;52.242;20.900;2023-09-19T10:06:13;15.60;;;8.43;;
70675;SDS011;59069;52.242;20.900;2023-09-19T10:09:07;15.00;;;8.18;;
70675;SDS011;59069;52.242;20.900;2023-09-19T10:14:16;13.98;;;7.82;;
70675;SDS011;59069;52.242;20.900;2023-09-19T10:16:48;12.95;;;7.32;;
70675;SDS011;59069;52.242;20.900;2023-09-19T10:19:15;12.23;;;6.87;;
70675;SDS011;59069;52.242;20.900;2023-09-19T10:21:55;23.67;;;16.52;;
70675;SDS011;59069;52.242;20.900;2023-09-19T10:24:22;29.92;;;20.80;;
70675;SDS011;59069;52.242;20.900;2023-09-19T10:26:51;28.50;;;20.48;;
70675;SDS011;59069;52.242;20.900;2023-09-19T10:29:16;25.17;;;15.07;;
70675;SDS011;59069;52.242;20.900;2023-09-19T10:31:43;26.75;;;11.43;;
70675;SDS011;59069;52.242;20.900;2023-09-19T10:34:12;38.60;;;15.07;;
70675;SDS011;59069;52.242;20.900;2023-09-19T10:36:40;38.05;;;15.15;;
70675;SDS011;59069;52.242;20.900;2023-09-19T10:39:10;11.33;;;5.93;;
70675;SDS011;59069;52.242;20.900;2023-09-19T10:41:37;10.98;;;6.38;;
70675;SDS011;59069;52.242;20.900;2023-09-19T10:44:03;9.65;;;4.95;;
70675;SDS011;59069;52.242;20.900;2023-09-19T10:46:32;9.75;;;5.22;;
70675;SDS011;59069;52.242;20.900;2023-09-19T10:49:01;11.30;;;5.30;;
70675;SDS011;59069;52.242;20.900;2023-09-19T10:51:31;11.15;;;6.10;;
70675;SDS011;59069;52.242;20.900;2023-09-19T10:54:11;12.93;;;5.72;;
70675;SDS011;59069;52.242;20.900;2023-09-19T10:56:39;11.00;;;5.55;;
70675;SDS011;59069;52.242;20.900;2023-09-19T11:01:44;12.10;;;5.53;;
70675;SDS011;59069;52.242;20.900;2023-09-19T11:07:09;10.70;;;4.90;;
70675;SDS011;59069;52.242;20.900;2023-09-19T11:09:54;10.07;;;5.78;;
70675;SDS011;59069;52.242;20.900;2023-09-19T11:15:06;11.80;;;6.17;;
70675;SDS011;59069;52.242;20.900;2023-09-19T11:17:39;10.50;;;5.97;;
70675;SDS011;59069;52.242;20.900;2023-09-19T11:30:31;12.32;;;5.70;;
70675;SDS011;59069;52.242;20.900;2023-09-19T11:43:53;9.52;;;5.63;;
70675;SDS011;59069;52.242;20.900;2023-09-19T11:49:17;12.60;;;6.38;;
70675;SDS011;59069;52.242;20.900;2023-09-19T11:51:50;10.98;;;6.47;;
70675;SDS011;59069;52.242;20.900;2023-09-19T11:54:19;13.65;;;6.50;;
70675;SDS011;59069;52.242;20.900;2023-09-19T11:56:50;11.13;;;5.28;;
70675;SDS011;59069;52.242;20.900;2023-09-19T11:59:23;12.10;;;5.70;;
70675;SDS011;59069;52.242;20.900;2023-09-19T12:01:53;11.60;;;6.32;;
70675;SDS011;59069;52.242;20.900;2023-09-19T12:04:40;11.82;;;6.10;;
70675;SDS011;59069;52.242;20.900;2023-09-19T12:07:13;10.57;;;6.43;;
70675;SDS011;59069;52.242;20.900;2023-09-19T12:09:50;11.93;;;6.78;;
70675;SDS011;59069;52.242;20.900;2023-09-19T12:12:30;11.70;;;6.27;;
70675;SDS011;59069;52.242;20.900;2023-09-19T12:17:36;12.10;;;6.57;;
70675;SDS011;59069;52.242;20.900;2023-09-19T12:20:07;13.27;;;7.00;;
70675;SDS011;59069;52.242;20.900;2023-09-19T12:22:40;13.60;;;7.07;;
70675;SDS011;59069;52.242;20.900;2023-09-19T12:25:08;12.60;;;6.97;;
70675;SDS011;59069;52.242;20.900;2023-09-19T12:27:48;10.85;;;7.22;;
70675;SDS011;59069;52.242;20.900;2023-09-19T12:30:17;10.27;;;6.18;;
70675;SDS011;59069;52.242;20.900;2023-09-19T12:32:46;14.07;;;6.90;;
70675;SDS011;59069;52.242;20.900;2023-09-19T12:38:25;12.60;;;6.70;;
70675;SDS011;59069;52.242;20.900;2023-09-19T12:40:53;14.50;;;6.88;;
70675;SDS011;59069;52.242;20.900;2023-09-19T12:43:21;12.95;;;6.63;;
70675;SDS011;59069;52.242;20.900;2023-09-19T12:45:47;13.23;;;7.07;;
70675;SDS011;59069;52.242;20.900;2023-09-19T12:48:23;12.93;;;6.90;;
70675;SDS011;59069;52.242;20.900;2023-09-19T12:53:35;11.43;;;6.55;;
70675;SDS011;59069;52.242;20.900;2023-09-19T12:56:10;11.93;;;7.50;;
70675;SDS011;59069;52.242;20.900;2023-09-19T13:01:16;14.07;;;7.47;;
70675;SDS011;59069;52.242;20.900;2023-09-19T13:03:42;13.13;;;6.85;;
70675;SDS011;59069;52.242;20.900;2023-09-19T13:06:07;12.23;;;7.03;;
70675;SDS011;59069;52.242;20.900;2023-09-19T13:08:36;12.75;;;7.90;;
70675;SDS011;59069;52.242;20.900;2023-09-19T13:11:12;14.93;;;8.20;;
70675;SDS011;59069;52.242;20.900;2023-09-19T13:16:19;14.48;;;8.15;;
70675;SDS011;59069;52.242;20.900;2023-09-19T13:21:16;14.10;;;8.00;;
70675;SDS011;59069;52.242;20.900;2023-09-19T13:23:52;12.60;;;7.75;;
70675;SDS011;59069;52.242;20.900;2023-09-19T13:26:19;14.35;;;7.88;;
70675;SDS011;59069;52.242;20.900;2023-09-19T13:28:45;11.87;;;7.77;;
70675;SDS011;59069;52.242;20.900;2023-09-19T13:31:12;14.82;;;8.55;;
70675;SDS011;59069;52.242;20.900;2023-09-19T13:33:45;14.18;;;8.38;;
70675;SDS011;59069;52.242;20.900;2023-09-19T13:36:12;14.88;;;8.25;;
70675;SDS011;59069;52.242;20.900;2023-09-19T13:38:42;14.83;;;8.40;;
70675;SDS011;59069;52.242;20.900;2023-09-19T13:41:08;14.55;;;8.35;;
70675;SDS011;59069;52.242;20.900;2023-09-19T13:43:35;16.00;;;8.70;;
70675;SDS011;59069;52.242;20.900;2023-09-19T13:46:01;15.55;;;8.98;;
70675;SDS011;59069;52.242;20.900;2023-09-19T13:48:27;13.10;;;8.83;;
70675;SDS011;59069;52.242;20.900;2023-09-19T13:50:55;14.15;;;9.40;;
70675;SDS011;59069;52.242;20.900;2023-09-19T13:53:21;15.82;;;9.13;;
70675;SDS011;59069;52.242;20.900;2023-09-19T13:55:46;15.50;;;9.40;;
70675;SDS011;59069;52.242;20.900;2023-09-19T13:58:13;15.73;;;9.13;;
70675;SDS011;59069;52.242;20.900;2023-09-19T14:00:39;13.85;;;9.18;;
70675;SDS011;59069;52.242;20.900;2023-09-19T14:03:04;12.63;;;8.63;;
70675;SDS011;59069;52.242;20.900;2023-09-19T14:05:30;14.60;;;8.37;;
70675;SDS011;59069;52.242;20.900;2023-09-19T14:07:56;13.20;;;8.35;;
70675;SDS011;59069;52.242;20.900;2023-09-19T14:10:24;12.77;;;8.77;;
70675;SDS011;59069;52.242;20.900;2023-09-19T14:12:51;17.08;;;8.57;;
70675;SDS011;59069;52.242;20.900;2023-09-19T14:15:16;12.40;;;7.30;;
70675;SDS011;59069;52.242;20.900;2023-09-19T14:17:42;10.23;;;6.83;;
70675;SDS011;59069;52.242;20.900;2023-09-19T14:20:07;10.10;;;5.67;;
70675;SDS011;59069;52.242;20.900;2023-09-19T14:22:35;11.90;;;5.70;;
70675;SDS011;59069;52.242;20.900;2023-09-19T14:25:01;11.38;;;5.65;;
70675;SDS011;59069;52.242;20.900;2023-09-19T14:27:30;9.25;;;4.82;;
70675;SDS011;59069;52.242;20.900;2023-09-19T14:29:55;9.90;;;4.80;;
70675;SDS011;59069;52.242;20.900;2023-09-19T14:32:22;8.73;;;5.43;;
70675;SDS011;59069;52.242;20.900;2023-09-19T14:34:48;9.90;;;5.53;;
70675;SDS011;59069;52.242;20.900;2023-09-19T14:37:14;9.60;;;5.00;;
70675;SDS011;59069;52.242;20.900;2023-09-19T14:39:41;9.48;;;5.00;;
70675;SDS011;59069;52.242;20.900;2023-09-19T14:42:10;8.55;;;4.90;;
70675;SDS011;59069;52.242;20.900;2023-09-19T14:44:35;8.10;;;4.30;;
70675;SDS011;59069;52.242;20.900;2023-09-19T14:47:02;9.00;;;5.03;;
70675;SDS011;59069;52.242;20.900;2023-09-19T14:49:29;9.40;;;5.03;;
70675;SDS011;59069;52.242;20.900;2023-09-19T14:51:55;10.30;;;4.70;;
70675;SDS011;59069;52.242;20.900;2023-09-19T14:54:20;9.57;;;4.43;;
70675;SDS011;59069;52.242;20.900;2023-09-19T14:56:46;9.77;;;4.77;;
70675;SDS011;59069;52.242;20.900;2023-09-19T14:59:18;8.18;;;4.53;;
70675;SDS011;59069;52.242;20.900;2023-09-19T15:01:45;8.70;;;4.82;;
70675;SDS011;59069;52.242;20.900;2023-09-19T15:04:10;8.97;;;4.80;;
70675;SDS011;59069;52.242;20.900;2023-09-19T15:06:36;10.52;;;4.75;;
70675;SDS011;59069;52.242;20.900;2023-09-19T15:09:01;8.97;;;4.60;;
70675;SDS011;59069;52.242;20.900;2023-09-19T15:11:30;9.75;;;5.10;;
70675;SDS011;59069;52.242;20.900;2023-09-19T15:13:55;8.67;;;5.30;;
70675;SDS011;59069;52.242;20.900;2023-09-19T15:16:21;10.43;;;5.07;;
70675;SDS011;59069;52.242;20.900;2023-09-19T15:18:47;9.80;;;5.33;;
70675;SDS011;59069;52.242;20.900;2023-09-19T15:21:13;15.43;;;5.13;;
70675;SDS011;59069;52.242;20.900;2023-09-19T15:23:40;12.13;;;5.68;;
70675;SDS011;59069;52.242;20.900;2023-09-19T15:26:07;7.80;;;4.70;;
70675;SDS011;59069;52.242;20.900;2023-09-19T15:28:39;8.95;;;5.13;;
70675;SDS011;59069;52.242;20.900;2023-09-19T15:31:05;10.05;;;5.72;;
70675;SDS011;59069;52.242;20.900;2023-09-19T15:33:32;11.07;;;5.03;;
70675;SDS011;59069;52.242;20.900;2023-09-19T15:38:28;7.97;;;5.43;;
70675;SDS011;59069;52.242;20.900;2023-09-19T15:40:54;11.48;;;5.35;;
70675;SDS011;59069;52.242;20.900;2023-09-19T15:43:20;10.80;;;5.27;;
70675;SDS011;59069;52.242;20.900;2023-09-19T15:45:46;9.75;;;5.38;;
70675;SDS011;59069;52.242;20.900;2023-09-19T15:48:13;9.60;;;5.03;;
70675;SDS011;59069;52.242;20.900;2023-09-19T15:50:39;9.38;;;5.00;;